<?xml version="1.0" encoding="UTF-8" standalone="no" ?>
<gpx xmlns="http://www.topografix.com/GPX/1/1" xmlns:xsi="http://www.w3.org/2001/XMLSchema-instance" xsi:schemaLocation="http://www.topografix.com/GPX/1/1 http://www.topografix.com/GPX/1/1/gpx.xsd" version="1.1" creator="VisuGPX - https://www.visugpx.com">
  <metadata>
    <name>05/08/2013 (2)</name>
    <desc><![CDATA[05/08/2013]]></desc>
  </metadata>
  <wpt lat="48.7192" lon="2.09224">
    <ele>159.1</ele>
    <name><![CDATA[Start]]></name>
    <desc><![CDATA[2013-08-05 15:46:49]]></desc>
  </wpt>
  <wpt lat="48.71918" lon="2.09226">
    <ele>159</ele>
    <name><![CDATA[Lap 1]]></name>
    <desc><![CDATA[0.78km, 3:03, 15.5kph]]></desc>
  </wpt>
  <trk>
    <name><![CDATA[2013-08-05-15-46-49]]></name>
    <desc><![CDATA[3:03 - 0.8km]]></desc>
    <trkseg>
      <trkpt lat="48.7192" lon="2.09224">
        <ele>162.199</ele>
        <time>2013-08-05T15:46:49Z</time>
      </trkpt>
      <trkpt lat="48.7192" lon="2.09224">
        <ele>162.199</ele>
        <time>2013-08-05T15:46:51Z</time>
      </trkpt>
      <trkpt lat="48.71926" lon="2.09227">
        <ele>161.635</ele>
        <time>2013-08-05T15:46:56Z</time>
      </trkpt>
      <trkpt lat="48.71934" lon="2.09267">
        <ele>161.828</ele>
        <time>2013-08-05T15:47:05Z</time>
      </trkpt>
      <trkpt lat="48.71944" lon="2.09312">
        <ele>162.37</ele>
        <time>2013-08-05T15:47:14Z</time>
      </trkpt>
      <trkpt lat="48.71955" lon="2.09315">
        <ele>162.512</ele>
        <time>2013-08-05T15:47:18Z</time>
      </trkpt>
      <trkpt lat="48.71984" lon="2.09302">
        <ele>162.803</ele>
        <time>2013-08-05T15:47:26Z</time>
      </trkpt>
      <trkpt lat="48.71999" lon="2.09296">
        <ele>163.061</ele>
        <time>2013-08-05T15:47:30Z</time>
      </trkpt>
      <trkpt lat="48.72008" lon="2.09309">
        <ele>163.264</ele>
        <time>2013-08-05T15:47:34Z</time>
      </trkpt>
      <trkpt lat="48.72021" lon="2.0936">
        <ele>163.871</ele>
        <time>2013-08-05T15:47:43Z</time>
      </trkpt>
      <trkpt lat="48.72024" lon="2.09371">
        <ele>164.001</ele>
        <time>2013-08-05T15:47:45Z</time>
      </trkpt>
      <trkpt lat="48.72016" lon="2.09385">
        <ele>164.336</ele>
        <time>2013-08-05T15:47:49Z</time>
      </trkpt>
      <trkpt lat="48.71982" lon="2.09406">
        <ele>164.39</ele>
        <time>2013-08-05T15:47:57Z</time>
      </trkpt>
      <trkpt lat="48.71946" lon="2.09449">
        <ele>163.589</ele>
        <time>2013-08-05T15:48:07Z</time>
      </trkpt>
      <trkpt lat="48.71911" lon="2.09498">
        <ele>163.4</ele>
        <time>2013-08-05T15:48:17Z</time>
      </trkpt>
      <trkpt lat="48.71884" lon="2.09537">
        <ele>162.53</ele>
        <time>2013-08-05T15:48:25Z</time>
      </trkpt>
      <trkpt lat="48.71872" lon="2.09555">
        <ele>162.556</ele>
        <time>2013-08-05T15:48:29Z</time>
      </trkpt>
      <trkpt lat="48.7186" lon="2.09566">
        <ele>162.641</ele>
        <time>2013-08-05T15:48:33Z</time>
      </trkpt>
      <trkpt lat="48.71857" lon="2.09564">
        <ele>162.615</ele>
        <time>2013-08-05T15:48:34Z</time>
      </trkpt>
      <trkpt lat="48.71834" lon="2.09539">
        <ele>162.093</ele>
        <time>2013-08-05T15:48:41Z</time>
      </trkpt>
      <trkpt lat="48.71829" lon="2.09534">
        <ele>161.887</ele>
        <time>2013-08-05T15:48:43Z</time>
      </trkpt>
      <trkpt lat="48.7182" lon="2.09524">
        <ele>161.119</ele>
        <time>2013-08-05T15:48:48Z</time>
      </trkpt>
      <trkpt lat="48.71805" lon="2.09517">
        <ele>160.812</ele>
        <time>2013-08-05T15:48:53Z</time>
      </trkpt>
      <trkpt lat="48.71799" lon="2.0952">
        <ele>160.762</ele>
        <time>2013-08-05T15:48:55Z</time>
      </trkpt>
      <trkpt lat="48.71798" lon="2.09509">
        <ele>160.367</ele>
        <time>2013-08-05T15:48:59Z</time>
      </trkpt>
      <trkpt lat="48.71807" lon="2.0949">
        <ele>160.089</ele>
        <time>2013-08-05T15:49:03Z</time>
      </trkpt>
      <trkpt lat="48.71811" lon="2.09485">
        <ele>160.123</ele>
        <time>2013-08-05T15:49:04Z</time>
      </trkpt>
      <trkpt lat="48.71832" lon="2.09449">
        <ele>160.195</ele>
        <time>2013-08-05T15:49:11Z</time>
      </trkpt>
      <trkpt lat="48.71835" lon="2.09444">
        <ele>160.259</ele>
        <time>2013-08-05T15:49:12Z</time>
      </trkpt>
      <trkpt lat="48.71842" lon="2.09418">
        <ele>160.497</ele>
        <time>2013-08-05T15:49:16Z</time>
      </trkpt>
      <trkpt lat="48.71851" lon="2.09393">
        <ele>160.582</ele>
        <time>2013-08-05T15:49:20Z</time>
      </trkpt>
      <trkpt lat="48.71859" lon="2.09375">
        <ele>160.577</ele>
        <time>2013-08-05T15:49:23Z</time>
      </trkpt>
      <trkpt lat="48.71864" lon="2.09363">
        <ele>160.56</ele>
        <time>2013-08-05T15:49:25Z</time>
      </trkpt>
      <trkpt lat="48.71875" lon="2.09317">
        <ele>160.339</ele>
        <time>2013-08-05T15:49:32Z</time>
      </trkpt>
      <trkpt lat="48.7189" lon="2.09275">
        <ele>160.382</ele>
        <time>2013-08-05T15:49:39Z</time>
      </trkpt>
      <trkpt lat="48.71904" lon="2.09256">
        <ele>160.658</ele>
        <time>2013-08-05T15:49:44Z</time>
      </trkpt>
      <trkpt lat="48.71918" lon="2.09226">
        <ele>161.108</ele>
        <time>2013-08-05T15:49:51Z</time>
      </trkpt>
    </trkseg>
  </trk>
</gpx>